createdAt,value
2018-06-09T00:00:54.705Z,45.10
2018-06-09T00:03:23.422Z,45.40
2018-06-09T00:08:20.325Z,45.60
2018-06-09T00:10:49.066Z,45.70
2018-06-09T00:15:46.699Z,46.10
2018-06-09T00:18:15.351Z,46.10
2018-06-09T00:20:44.700Z,46.20
2018-06-09T00:23:14.056Z,46.30
2018-06-09T00:25:42.663Z,46.40
2018-06-09T00:28:11.335Z,46.70
2018-06-09T00:30:40.527Z,46.70
2018-06-09T00:33:09.144Z,46.90
2018-06-09T00:35:37.747Z,47.00
2018-06-09T00:38:07.274Z,46.90
2018-06-09T00:40:35.933Z,47.10
2018-06-09T00:43:04.892Z,47.20
2018-06-09T00:45:33.526Z,47.30
2018-06-09T00:50:30.526Z,47.70
2018-06-09T00:52:59.126Z,47.70
2018-06-09T00:55:27.652Z,47.80
2018-06-09T01:00:24.645Z,48.00
2018-06-09T01:02:53.451Z,48.30
2018-06-09T01:05:22.013Z,48.30
2018-06-09T01:07:50.630Z,48.30
2018-06-09T01:10:19.414Z,48.30
2018-06-09T01:12:48.119Z,48.50
2018-06-09T01:15:16.750Z,48.70
2018-06-09T01:17:45.309Z,48.70
2018-06-09T01:22:42.199Z,49.10
2018-06-09T01:25:10.892Z,49.20
2018-06-09T01:27:39.514Z,49.40
2018-06-09T01:30:08.129Z,49.40
2018-06-09T01:35:04.987Z,49.70
2018-06-09T01:40:01.899Z,50.00
2018-06-09T01:42:30.506Z,50.10
2018-06-09T01:44:59.024Z,50.10
2018-06-09T01:47:27.671Z,50.30
2018-06-09T01:49:56.916Z,50.40
2018-06-09T01:52:25.650Z,50.60
2018-06-09T01:54:54.938Z,50.70
2018-06-09T01:57:23.639Z,50.70
2018-06-09T01:59:52.170Z,50.80
2018-06-09T02:02:20.747Z,50.90
2018-06-09T02:04:50.000Z,51.00
2018-06-09T02:07:18.614Z,51.10
2018-06-09T02:09:47.247Z,51.20
2018-06-09T02:12:15.781Z,51.40
2018-06-09T02:14:44.341Z,51.50
2018-06-09T02:17:12.867Z,51.70
2018-06-09T02:19:41.359Z,51.40
2018-06-09T02:22:10.062Z,52.10
2018-06-09T02:24:38.644Z,52.30
2018-06-09T02:27:07.772Z,52.40
2018-06-09T02:32:04.684Z,52.50
2018-06-09T02:34:33.288Z,52.60
2018-06-09T02:37:01.799Z,52.80
2018-06-09T02:41:58.631Z,53.10
2018-06-09T02:44:27.544Z,53.10
2018-06-09T02:49:24.473Z,53.50
2018-06-09T02:51:53.072Z,53.50
2018-06-09T02:54:21.724Z,53.60
2018-06-09T02:56:51.281Z,53.80
2018-06-09T03:01:48.003Z,53.80
2018-06-09T03:04:16.567Z,53.90
2018-06-09T03:06:45.132Z,54.00
2018-06-09T03:09:13.758Z,53.80
2018-06-09T03:11:42.295Z,53.90
2018-06-09T03:14:10.832Z,54.10
2018-06-09T03:16:39.409Z,54.00
2018-06-09T03:19:07.941Z,54.00
2018-06-09T03:21:36.567Z,54.10
2018-06-09T03:24:05.155Z,54.10
2018-06-09T03:26:33.702Z,54.10
2018-06-09T03:29:02.302Z,54.10
2018-06-09T03:31:30.896Z,54.00
2018-06-09T03:33:59.563Z,53.90
2018-06-09T03:36:28.192Z,53.90
2018-06-09T03:41:24.919Z,53.70
2018-06-09T03:43:53.479Z,53.60
2018-06-09T03:46:22.045Z,53.40
2018-06-09T03:48:50.632Z,53.30
2018-06-09T03:51:19.196Z,53.20
2018-06-09T03:53:47.775Z,53.10
2018-06-09T03:56:16.322Z,53.00
2018-06-09T03:58:50.041Z,52.90
2018-06-09T04:03:46.832Z,53.40
2018-06-09T04:06:15.328Z,52.60
2018-06-09T04:08:44.070Z,52.50
2018-06-09T04:11:12.587Z,52.30
2018-06-09T04:13:41.062Z,52.20
2018-06-09T04:16:09.639Z,51.80
2018-06-09T04:18:38.130Z,51.60
2018-06-09T04:21:06.806Z,51.40
2018-06-09T04:23:35.420Z,51.10
2018-06-09T04:26:04.037Z,51.10
2018-06-09T04:28:32.499Z,51.00
2018-06-09T04:31:01.069Z,50.80
2018-06-09T04:33:29.575Z,50.60
2018-06-09T04:35:58.196Z,50.50
2018-06-09T04:38:26.861Z,50.00
2018-06-09T04:43:23.683Z,49.40
2018-06-09T04:45:52.305Z,49.30
2018-06-09T04:50:49.621Z,48.60
2018-06-09T04:53:18.251Z,48.20
2018-06-09T04:58:15.049Z,47.70
2018-06-09T05:00:43.571Z,47.20
2018-06-09T05:03:12.155Z,47.10
2018-06-09T05:05:40.816Z,46.60
2018-06-09T05:08:10.130Z,46.60
2018-06-09T05:10:38.681Z,46.30
2018-06-09T05:13:07.282Z,46.70
2018-06-09T05:15:36.712Z,46.00
2018-06-09T05:18:05.621Z,45.80
2018-06-09T05:23:02.431Z,45.60
2018-06-09T05:25:31.021Z,45.20
2018-06-09T05:27:59.541Z,45.10
2018-06-09T05:30:28.458Z,45.10
2018-06-09T05:32:57.041Z,45.10
2018-06-09T05:35:25.724Z,44.90
2018-06-09T05:37:54.363Z,44.90
2018-06-09T05:40:22.945Z,45.00
2018-06-09T05:42:51.516Z,45.00
2018-06-09T05:45:20.049Z,44.60
2018-06-09T05:47:48.645Z,44.40
2018-06-09T05:50:17.831Z,43.90
2018-06-09T05:52:46.347Z,43.70
2018-06-09T05:55:14.896Z,43.50
2018-06-09T05:57:44.120Z,43.10
2018-06-09T06:00:14.337Z,42.80
2018-06-09T06:02:43.148Z,42.50
2018-06-09T06:05:12.760Z,42.20
2018-06-09T06:07:45.649Z,41.60
2018-06-09T06:10:14.985Z,41.60
2018-06-09T06:12:43.711Z,41.60
2018-06-09T06:15:13.042Z,41.60
2018-06-09T06:17:41.712Z,41.80
2018-06-09T06:20:10.483Z,41.90
2018-06-09T06:22:39.646Z,41.80
2018-06-09T06:25:09.303Z,41.90
2018-06-09T06:27:38.561Z,42.10
2018-06-09T06:30:07.200Z,41.80
2018-06-09T06:32:35.870Z,41.80
2018-06-09T06:35:04.540Z,41.50
2018-06-09T06:37:33.205Z,41.20
2018-06-09T06:40:01.917Z,40.90
2018-06-09T06:42:30.451Z,40.60
2018-06-09T06:44:59.976Z,40.10
2018-06-09T06:47:28.572Z,39.70
2018-06-09T06:49:57.328Z,39.40
2018-06-09T06:52:25.957Z,38.90
2018-06-09T06:54:54.592Z,39.10
2018-06-09T06:57:23.173Z,38.90
2018-06-09T06:59:51.773Z,38.60
2018-06-09T07:02:21.077Z,38.50
2018-06-09T07:04:51.654Z,38.10
2018-06-09T07:07:20.379Z,37.50
2018-06-09T07:09:48.999Z,37.00
2018-06-09T07:12:17.584Z,36.80
2018-06-09T07:14:46.180Z,36.80
2018-06-09T07:17:14.854Z,36.50
2018-06-09T07:19:43.448Z,36.20
2018-06-09T07:22:13.005Z,36.10
2018-06-09T07:24:41.685Z,35.60
2018-06-09T07:27:10.354Z,35.20
2018-06-09T07:32:07.220Z,35.00
2018-06-09T07:34:36.308Z,34.80
2018-06-09T07:39:33.316Z,34.90
2018-06-09T07:42:01.911Z,35.00
2018-06-09T07:44:30.630Z,34.90
2018-06-09T07:49:27.577Z,34.50
2018-06-09T07:51:56.175Z,34.20
2018-06-09T07:54:24.826Z,34.20
2018-06-09T07:56:53.365Z,34.20
2018-06-09T07:59:21.942Z,34.40
2018-06-09T08:01:50.668Z,34.30
2018-06-09T08:04:19.610Z,34.20
2018-06-09T08:09:16.700Z,33.20
2018-06-09T08:11:45.470Z,32.40
2018-06-09T08:14:14.104Z,32.20
2018-06-09T08:16:42.737Z,31.90
2018-06-09T08:19:11.649Z,32.00
2018-06-09T08:21:40.500Z,31.90
2018-06-09T08:26:38.017Z,32.50
2018-06-09T08:29:06.743Z,31.00
2018-06-09T08:31:35.408Z,30.70
2018-06-09T08:34:04.613Z,30.70
2018-06-09T08:36:34.051Z,30.80
2018-06-09T08:39:02.748Z,30.60
2018-06-09T08:41:31.469Z,30.70
2018-06-09T08:44:00.084Z,30.80
2018-06-09T08:46:29.445Z,30.10
2018-06-09T08:48:58.019Z,30.00
2018-06-09T08:51:26.712Z,30.20
2018-06-09T08:53:55.428Z,30.00
2018-06-09T08:56:24.046Z,29.70
2018-06-09T09:01:21.136Z,29.90
2018-06-09T09:03:49.813Z,29.70
2018-06-09T09:06:18.629Z,29.60
2018-06-09T09:08:47.347Z,29.60
2018-06-09T09:11:16.012Z,29.40
2018-06-09T09:13:44.755Z,29.30
2018-06-09T09:16:14.108Z,29.50
2018-06-09T09:18:42.928Z,29.50
2018-06-09T09:23:40.019Z,29.30
2018-06-09T09:26:08.666Z,29.50
2018-06-09T09:31:06.393Z,29.30
2018-06-09T09:33:35.147Z,29.40
2018-06-09T09:38:32.157Z,28.80
2018-06-09T09:41:00.781Z,28.90
2018-06-09T09:43:29.347Z,28.90
2018-06-09T09:45:57.921Z,28.70
2018-06-09T09:48:26.568Z,28.50
2018-06-09T09:50:55.189Z,28.90
2018-06-09T09:53:23.804Z,28.90
2018-06-09T09:58:21.360Z,28.90
2018-06-09T10:00:49.957Z,28.40
2018-06-09T10:05:46.894Z,28.60
2018-06-09T10:08:15.562Z,28.60
2018-06-09T10:10:44.336Z,28.90
2018-06-09T10:13:13.061Z,28.90
2018-06-09T10:15:41.676Z,28.30
2018-06-09T10:18:11.652Z,28.50
2018-06-09T10:20:40.240Z,28.00
2018-06-09T10:25:37.200Z,27.60
2018-06-09T10:28:05.795Z,27.80
2018-06-09T10:33:03.477Z,28.10
2018-06-09T10:38:00.377Z,27.60
2018-06-09T10:40:29.040Z,27.60
2018-06-09T10:42:57.630Z,27.30
2018-06-09T10:45:26.192Z,28.00
2018-06-09T10:47:54.857Z,27.50
2018-06-09T10:50:23.530Z,27.70
2018-06-09T10:52:52.170Z,27.50
2018-06-09T10:55:20.835Z,27.60
2018-06-09T11:02:46.009Z,27.70
2018-06-09T11:05:14.631Z,27.40
2018-06-09T11:07:43.184Z,27.40
2018-06-09T11:10:11.867Z,27.00
2018-06-09T11:12:40.507Z,26.90
2018-06-09T11:17:37.866Z,27.30
2018-06-09T11:20:06.725Z,27.30
2018-06-09T11:22:35.659Z,26.90
2018-06-09T11:25:05.609Z,27.00
2018-06-09T11:27:34.335Z,27.10
2018-06-09T11:30:03.083Z,27.30
2018-06-09T11:32:32.325Z,26.70
2018-06-09T11:37:29.215Z,26.80
2018-06-09T11:39:57.785Z,27.00
2018-06-09T11:42:26.496Z,27.10
2018-06-09T11:44:55.865Z,27.30
2018-06-09T11:49:52.868Z,26.80
2018-06-09T11:52:22.002Z,26.90
2018-06-09T11:54:50.621Z,27.20
2018-06-09T11:57:19.183Z,27.60
2018-06-09T12:02:15.992Z,27.90
2018-06-09T12:04:44.580Z,28.00
2018-06-09T12:07:13.266Z,28.20
2018-06-09T12:09:41.864Z,28.30
2018-06-09T12:12:10.435Z,27.80
2018-06-09T12:14:38.957Z,27.10
2018-06-09T12:19:35.803Z,25.80
2018-06-09T12:22:04.443Z,25.10
2018-06-09T12:24:32.982Z,24.70
2018-06-09T12:29:30.501Z,23.80
2018-06-09T12:31:59.173Z,23.60
2018-06-09T12:34:27.720Z,23.40
2018-06-09T12:39:24.527Z,22.40
2018-06-09T12:41:53.080Z,22.60
2018-06-09T12:44:21.691Z,23.20
2018-06-09T12:46:50.281Z,23.50
2018-06-09T12:49:19.688Z,23.20
2018-06-09T12:51:48.236Z,22.70
2018-06-09T12:54:16.910Z,22.20
2018-06-09T12:56:45.529Z,21.70
2018-06-09T12:59:14.181Z,21.40
2018-06-09T13:01:42.724Z,21.30
2018-06-09T13:04:11.375Z,21.10
2018-06-09T13:06:40.840Z,21.60
2018-06-09T13:09:09.476Z,22.10
2018-06-09T13:11:38.058Z,21.80
2018-06-09T13:14:06.736Z,21.40
2018-06-09T13:16:35.389Z,21.10
2018-06-09T13:19:03.934Z,20.80
2018-06-09T13:24:00.885Z,20.10
2018-06-09T13:26:29.424Z,19.80
2018-06-09T13:28:58.005Z,20.00
2018-06-09T13:31:26.707Z,19.60
2018-06-09T13:33:55.416Z,19.50
2018-06-09T13:36:23.989Z,19.40
2018-06-09T13:38:52.659Z,19.30
2018-06-09T13:41:22.062Z,19.50
2018-06-09T13:43:50.594Z,19.30
2018-06-09T13:48:48.422Z,18.70
2018-06-09T13:51:16.964Z,18.90
2018-06-09T13:56:13.751Z,19.20
2018-06-09T13:58:42.959Z,19.70
2018-06-09T14:01:11.521Z,19.20
2018-06-09T14:03:40.095Z,19.00
2018-06-09T14:06:08.685Z,18.70
2018-06-09T14:08:37.285Z,18.10
2018-06-09T14:11:06.472Z,17.40
2018-06-09T14:13:35.083Z,18.20
2018-06-09T14:16:03.610Z,18.40
2018-06-09T14:21:00.554Z,18.30
2018-06-09T14:23:29.171Z,19.00
2018-06-09T14:25:57.694Z,19.90
2018-06-09T14:28:26.244Z,20.80
2018-06-09T14:30:54.830Z,21.50
2018-06-09T14:33:23.387Z,20.70
2018-06-09T14:35:52.016Z,19.70
2018-06-09T14:38:20.615Z,18.80
2018-06-09T14:40:49.249Z,18.50
2018-06-09T14:43:17.862Z,18.20
2018-06-09T14:45:46.455Z,17.70
2018-06-09T14:48:15.011Z,17.40
2018-06-09T14:50:44.522Z,16.90
2018-06-09T14:53:13.978Z,16.80
2018-06-09T14:58:10.918Z,16.70
2018-06-09T15:00:39.600Z,16.70
2018-06-09T15:03:08.174Z,16.40
2018-06-09T15:05:36.822Z,16.60
2018-06-09T15:08:06.289Z,16.30
2018-06-09T15:10:34.911Z,16.40
2018-06-09T15:13:04.458Z,16.60
2018-06-09T15:15:33.141Z,16.70
2018-06-09T15:18:01.776Z,17.10
2018-06-09T15:20:30.429Z,16.20
2018-06-09T15:22:59.108Z,16.20
2018-06-09T15:25:27.771Z,16.40
2018-06-09T15:27:56.394Z,16.40
2018-06-09T15:35:21.750Z,16.50
2018-06-09T15:40:18.651Z,16.30
2018-06-09T15:42:47.153Z,16.70
2018-06-09T15:45:15.808Z,16.60
2018-06-09T15:47:44.424Z,16.50
2018-06-09T15:50:13.777Z,16.40
2018-06-09T15:52:42.476Z,16.50
2018-06-09T15:55:11.142Z,16.40
2018-06-09T15:57:40.878Z,16.40
2018-06-09T16:00:09.760Z,16.40
2018-06-09T16:02:38.411Z,16.30
2018-06-09T16:05:07.098Z,16.60
2018-06-09T16:07:35.760Z,16.50
2018-06-09T16:12:33.436Z,16.50
2018-06-09T16:17:30.262Z,16.70
2018-06-09T16:19:58.809Z,16.50
2018-06-09T16:22:27.559Z,16.10
2018-06-09T16:32:21.519Z,16.60
2018-06-09T16:34:50.140Z,16.50
2018-06-09T16:37:18.781Z,16.70
2018-06-09T16:39:47.402Z,16.50
2018-06-09T16:42:15.948Z,16.80
2018-06-09T16:44:44.623Z,17.40
2018-06-09T16:47:13.309Z,18.50
2018-06-09T16:49:41.858Z,19.80
2018-06-09T16:52:10.457Z,20.90
2018-06-09T16:57:07.289Z,22.60
2018-06-09T16:59:37.036Z,23.50
2018-06-09T17:02:05.805Z,23.30
2018-06-09T17:04:34.384Z,23.50
2018-06-09T17:07:02.952Z,23.80
2018-06-09T17:09:31.575Z,24.10
2018-06-09T17:12:00.768Z,24.50
2018-06-09T17:14:29.392Z,24.60
2018-06-09T17:16:58.646Z,24.70
2018-06-09T17:19:27.507Z,24.70
2018-06-09T17:21:56.072Z,24.90
2018-06-09T17:24:24.678Z,25.00
2018-06-09T17:29:21.459Z,25.20
2018-06-09T17:31:50.098Z,25.40
2018-06-09T17:34:18.720Z,25.40
2018-06-09T17:36:47.272Z,25.60
2018-06-09T17:39:15.839Z,25.90
2018-06-09T17:41:45.176Z,26.10
2018-06-09T17:46:42.124Z,26.60
2018-06-09T17:49:10.635Z,26.80
2018-06-09T17:54:07.685Z,27.10
2018-06-09T18:01:33.072Z,27.90
2018-06-09T18:04:02.397Z,27.70
2018-06-09T18:06:31.161Z,28.00
2018-06-09T18:08:59.952Z,28.20
2018-06-09T18:11:29.365Z,28.40
2018-06-09T18:13:58.248Z,28.60
2018-06-09T18:16:27.075Z,28.60
2018-06-09T18:21:25.092Z,30.70
2018-06-09T18:23:54.059Z,34.60
2018-06-09T18:28:52.392Z,37.30
2018-06-09T18:31:21.402Z,38.20
2018-06-09T18:33:50.315Z,39.10
2018-06-09T18:36:19.774Z,39.70
2018-06-09T18:38:48.383Z,40.30
2018-06-09T18:43:45.680Z,41.30
2018-06-09T18:48:42.727Z,41.90
2018-06-09T18:51:11.406Z,42.40
2018-06-09T18:53:39.993Z,42.70
2018-06-09T18:56:08.636Z,43.00
2018-06-09T18:58:37.264Z,43.40
2018-06-09T19:01:06.097Z,43.70
2018-06-09T19:03:34.967Z,44.00
2018-06-09T19:08:31.916Z,44.80
2018-06-09T19:13:28.825Z,45.60
2018-06-09T19:15:57.517Z,45.80
2018-06-09T19:18:26.135Z,46.10
2018-06-09T19:20:55.463Z,46.60
2018-06-09T19:23:24.181Z,47.10
2018-06-09T19:25:52.972Z,47.30
2018-06-09T19:28:21.633Z,47.50
2018-06-09T19:30:50.467Z,47.80
2018-06-09T19:33:19.239Z,48.20
2018-06-09T19:35:47.919Z,48.60
2018-06-09T19:38:16.582Z,48.90
2018-06-09T19:40:45.243Z,49.20
2018-06-09T19:45:42.172Z,49.70
2018-06-09T19:48:14.186Z,50.20
2018-06-09T19:50:42.788Z,50.50
2018-06-09T19:53:11.692Z,50.80
2018-06-09T19:55:40.333Z,51.00
2018-06-09T19:58:09.127Z,51.50
2018-06-09T20:00:37.767Z,51.90
2018-06-09T20:03:06.475Z,52.20
2018-06-09T20:08:03.817Z,52.90
2018-06-09T20:10:32.447Z,53.10
2018-06-09T20:13:01.181Z,53.40
2018-06-09T20:15:29.759Z,53.80
2018-06-09T20:17:58.471Z,54.10
2018-06-09T20:20:27.171Z,54.30
2018-06-09T20:25:24.357Z,54.70
2018-06-09T20:27:53.036Z,54.90
2018-06-09T20:30:22.776Z,55.40
2018-06-09T20:32:51.483Z,55.60
2018-06-09T20:35:20.197Z,55.80
2018-06-09T20:40:17.873Z,56.60
2018-06-09T20:45:14.805Z,57.10
2018-06-09T20:47:43.393Z,57.30
2018-06-09T20:50:12.060Z,57.60
2018-06-09T20:52:40.745Z,57.80
2018-06-09T20:55:09.332Z,58.00
2018-06-09T20:57:38.017Z,58.20
2018-06-09T21:00:06.712Z,58.90
2018-06-09T21:02:36.180Z,58.40
2018-06-09T21:05:05.600Z,58.50
2018-06-09T21:07:34.983Z,58.70
2018-06-09T21:10:05.471Z,58.80
2018-06-09T21:15:02.479Z,59.20
2018-06-09T21:17:31.256Z,59.40
2018-06-09T21:19:59.943Z,59.60
2018-06-09T21:22:28.518Z,60.70
2018-06-09T21:24:57.335Z,60.20
2018-06-09T21:27:29.144Z,60.30
2018-06-09T21:32:28.951Z,60.80
2018-06-09T21:35:14.297Z,61.80
2018-06-09T21:37:43.014Z,61.50
2018-06-09T21:40:24.433Z,61.80
2018-06-09T21:42:58.335Z,62.00
2018-06-09T21:45:33.141Z,62.70
2018-06-09T21:48:01.860Z,62.10
2018-06-09T21:50:31.077Z,62.20
2018-06-09T21:55:28.150Z,62.10
2018-06-09T21:57:56.793Z,62.30
2018-06-09T22:00:26.977Z,62.30
2018-06-09T22:02:56.361Z,62.40
2018-06-09T22:05:25.017Z,62.40
2018-06-09T22:07:54.399Z,62.70
2018-06-09T22:10:22.986Z,62.80
2018-06-09T22:12:51.659Z,62.80
2018-06-09T22:17:49.284Z,63.30
2018-06-09T22:20:17.936Z,63.40
2018-06-09T22:22:46.444Z,63.80
2018-06-09T22:25:19.826Z,64.20
2018-06-09T22:27:48.489Z,64.70
2018-06-09T22:30:17.704Z,65.00
2018-06-09T22:32:46.250Z,65.40
2018-06-09T22:37:43.969Z,65.60
2018-06-09T22:40:12.651Z,65.90
2018-06-09T22:42:41.322Z,66.10
2018-06-09T22:45:09.996Z,66.50
2018-06-09T22:50:07.442Z,67.20
2018-06-09T22:55:04.490Z,68.00
2018-06-09T22:57:33.107Z,68.30
2018-06-09T23:09:55.624Z,69.80
2018-06-09T23:12:24.329Z,70.20
2018-06-09T23:14:53.071Z,70.60
2018-06-09T23:17:21.816Z,71.10
2018-06-09T23:19:50.445Z,71.20
2018-06-09T23:24:47.397Z,71.60
2018-06-09T23:27:16.020Z,72.00
2018-06-09T23:29:44.640Z,71.90
2018-06-09T23:32:13.351Z,72.00
2018-06-09T23:34:42.018Z,72.10
2018-06-09T23:37:10.717Z,72.20
2018-06-09T23:39:39.303Z,72.20
2018-06-09T23:42:08.005Z,72.40
2018-06-09T23:44:36.575Z,72.60
2018-06-09T23:47:05.144Z,73.60
2018-06-09T23:49:33.737Z,73.10
2018-06-09T23:52:02.340Z,73.20
2018-06-09T23:54:30.935Z,73.70
2018-06-09T23:57:00.226Z,73.50
